Time;durP1;ratioP1;P1;durP2;ratioP2;P2;SDS_P1;SDS_P2;PMS_P1;PMS_P2;Temp;Humidity;BMP_temperature;BMP_pressure;BME280_temperature;BME280_humidity;BME280_pressure;Samples;Min_cycle;Max_cycle;Signal;HPM_P1;HPM_P2
2021/08/10 00:03:47;;;;;;;18.13;8.85;;;;;;;14.66;87.78;101496.88;10134254;28;20560;-66
2021/08/10 00:08:43;;;;;;;17.33;9.00;;;;;;;14.64;87.81;101482.63;10175402;28;20474;-66
2021/08/10 00:13:40;;;;;;;17.05;8.88;;;;;;;14.62;87.73;101488.47;10178950;28;20527;-66
2021/08/10 00:18:36;;;;;;;16.95;9.15;;;;;;;14.62;87.99;101479.38;10169882;28;20062;-66
2021/08/10 00:23:33;;;;;;;15.07;8.88;;;;;;;14.56;87.98;101478.75;10164553;28;20108;-67
2021/08/10 00:28:29;;;;;;;15.85;8.65;;;;;;;14.55;87.99;101466.16;10168708;28;20575;-66
2021/08/10 00:33:26;;;;;;;16.38;8.05;;;;;;;14.56;87.68;101466.94;10160067;28;20089;-66
2021/08/10 00:38:22;;;;;;;14.90;8.27;;;;;;;14.52;87.66;101473.06;10163509;28;20134;-66
2021/08/10 00:43:39;;;;;;;14.00;7.53;;;;;;;14.55;87.50;101465.31;10156346;28;20054;-66
2021/08/10 00:48:36;;;;;;;14.57;8.15;;;;;;;14.51;88.33;101470.66;10154913;28;20564;-67
2021/08/10 00:53:33;;;;;;;15.40;8.48;;;;;;;14.47;88.12;101475.97;10173832;28;20062;-67
2021/08/10 00:58:31;;;;;;;16.30;9.02;;;;;;;14.46;88.30;101473.56;10163666;28;20073;-66
2021/08/10 01:03:27;;;;;;;16.95;8.70;;;;;;;14.36;88.35;101474.69;10167555;28;20054;-67
2021/08/10 01:08:51;;;;;;;17.48;8.10;;;;;;;14.33;88.41;101472.59;10150483;28;20565;-66
2021/08/10 01:13:53;;;;;;;17.75;8.23;;;;;;;14.34;88.20;101471.47;10177058;28;20065;-67
2021/08/10 01:19:09;;;;;;;13.15;7.68;;;;;;;14.34;88.04;101468.72;10174715;28;20050;-66
2021/08/10 01:24:26;;;;;;;13.23;7.30;;;;;;;14.35;88.09;101467.59;10167378;28;20046;-66
2021/08/10 01:29:42;;;;;;;12.60;6.82;;;;;;;14.31;87.76;101461.13;10154145;28;20472;-67
2021/08/10 01:34:42;;;;;;;16.77;7.15;;;;;;;14.28;87.85;101456.28;10151472;28;20074;-66
2021/08/10 01:39:43;;;;;;;13.10;6.30;;;;;;;14.24;88.15;101464.34;10154871;28;20508;-66
2021/08/10 01:44:40;;;;;;;10.45;5.78;;;;;;;14.18;87.75;101451.09;10163996;28;20050;-67
2021/08/10 01:49:38;;;;;;;14.63;7.85;;;;;;;14.15;87.92;101457.25;10154882;28;20046;-66
2021/08/10 01:54:36;;;;;;;13.05;6.45;;;;;;;14.08;88.31;101458.53;10171471;28;20504;-67
2021/08/10 01:59:33;;;;;;;12.85;6.82;;;;;;;14.03;87.69;101458.69;10176004;28;20089;-67
2021/08/10 02:04:30;;;;;;;11.68;6.63;;;;;;;13.98;87.63;101464.34;10165874;28;20501;-67
2021/08/10 02:09:28;;;;;;;15.07;6.85;;;;;;;13.92;87.90;101465.63;10180509;28;20530;-67
2021/08/10 02:14:26;;;;;;;11.93;6.72;;;;;;;13.90;88.31;101467.91;10166441;28;20108;-67
2021/08/10 02:19:23;;;;;;;12.80;5.93;;;;;;;13.86;87.94;101458.69;10184361;28;20133;-67
2021/08/10 02:24:23;;;;;;;10.68;6.10;;;;;;;13.89;87.95;101460.78;10177320;28;20050;-66
2021/08/10 02:29:20;;;;;;;14.45;7.13;;;;;;;13.88;88.16;101470.19;10176986;28;20102;-67
2021/08/10 02:34:19;;;;;;;16.27;7.38;;;;;;;13.86;88.21;101466.94;10122515;28;20066;-67
2021/08/10 02:39:16;;;;;;;10.45;6.85;;;;;;;13.82;88.29;101460.47;10146835;28;20041;-67
2021/08/10 02:44:14;;;;;;;12.88;6.97;;;;;;;13.78;88.65;101460.28;10190666;28;20077;-67
2021/08/10 02:49:10;;;;;;;14.10;6.20;;;;;;;13.78;88.73;101462.22;10121406;28;20070;-67
2021/08/10 02:54:07;;;;;;;14.10;6.28;;;;;;;13.72;88.77;101452.53;10121413;28;20421;-67
2021/08/10 02:59:16;;;;;;;14.18;6.60;;;;;;;13.73;88.76;101451.41;10137562;28;20423;-67
2021/08/10 03:04:13;;;;;;;11.63;5.20;;;;;;;13.76;88.98;101450.75;10159143;28;20046;-67
2021/08/10 03:09:11;;;;;;;13.68;5.93;;;;;;;13.79;88.75;101455.63;10163335;28;20419;-68
2021/08/10 03:14:11;;;;;;;9.23;4.88;;;;;;;13.78;89.01;101454.78;10161763;28;20046;-67
2021/08/10 03:19:09;;;;;;;7.85;5.15;;;;;;;13.78;88.99;101449.28;10147977;28;20398;-67
2021/08/10 03:24:06;;;;;;;11.65;5.07;;;;;;;13.83;88.17;101451.06;10135415;28;20100;-66
2021/08/10 03:29:04;;;;;;;10.60;5.55;;;;;;;13.86;88.65;101450.44;10128308;28;20463;-68
2021/08/10 03:34:00;;;;;;;10.13;4.75;;;;;;;13.88;89.26;101453.69;10185520;28;20066;-66
2021/08/10 03:38:57;;;;;;;8.98;5.05;;;;;;;13.88;88.95;101442.69;10161060;28;20125;-67
2021/08/10 03:43:55;;;;;;;7.45;4.22;;;;;;;13.89;88.82;101450.59;10164736;28;20512;-67
2021/08/10 03:48:51;;;;;;;9.40;4.70;;;;;;;13.89;88.61;101438.81;10158747;28;20046;-67
2021/08/10 03:53:48;;;;;;;8.85;4.65;;;;;;;13.91;88.21;101439.28;10131538;28;20166;-68
2021/08/10 03:58:47;;;;;;;9.13;4.55;;;;;;;13.93;88.28;101439.78;10150418;28;20046;-68
2021/08/10 04:03:44;;;;;;;9.95;4.70;;;;;;;13.93;88.23;101450.78;10189041;28;20081;-67
2021/08/10 04:08:42;;;;;;;7.30;3.85;;;;;;;13.94;88.41;101441.38;10170468;28;20146;-67
2021/08/10 04:13:39;;;;;;;8.68;4.22;;;;;;;13.94;88.85;101457.88;10185261;28;20062;-67
2021/08/10 04:18:36;;;;;;;6.28;4.15;;;;;;;13.98;88.83;101456.09;10164840;28;20579;-67
2021/08/10 04:23:33;;;;;;;8.70;3.90;;;;;;;14.01;88.58;101460.94;10180610;28;20461;-67
2021/08/10 04:28:29;;;;;;;8.65;4.38;;;;;;;14.03;88.79;101472.44;10133921;28;20054;-67
2021/08/10 04:33:26;;;;;;;12.93;4.22;;;;;;;14.05;88.99;101461.94;10177607;28;20050;-67
2021/08/10 04:38:22;;;;;;;7.82;4.25;;;;;;;14.07;89.33;101459.66;10127817;28;20066;-68
2021/08/10 04:43:19;;;;;;;7.40;4.45;;;;;;;14.12;89.01;101452.41;10174292;28;20125;-68
2021/08/10 04:48:15;;;;;;;7.35;3.53;;;;;;;14.14;89.12;101455.63;10175513;28;20534;-67
2021/08/10 04:53:12;;;;;;;13.02;4.82;;;;;;;14.17;89.18;101460.47;10165807;28;20043;-68
2021/08/10 04:58:08;;;;;;;9.38;3.75;;;;;;;14.22;88.91;101465.81;10169848;28;20459;-68
2021/08/10 05:03:05;;;;;;;7.75;4.25;;;;;;;14.24;88.97;101460.78;10148170;28;20078;-66
2021/08/10 05:08:01;;;;;;;8.85;4.70;;;;;;;14.26;89.24;101458.53;10172257;28;20057;-68
2021/08/10 05:12:58;;;;;;;7.15;4.45;;;;;;;14.28;88.94;101456.28;10168066;28;20062;-67
2021/08/10 05:17:54;;;;;;;8.30;4.20;;;;;;;14.29;88.92;101463.38;10165805;28;20058;-69
2021/08/10 05:22:51;;;;;;;9.77;4.75;;;;;;;14.25;89.14;101462.41;10157106;28;20053;-68
2021/08/10 05:27:48;;;;;;;10.75;4.35;;;;;;;14.29;88.87;101458.69;10148127;28;20057;-66
2021/08/10 05:32:45;;;;;;;9.38;4.88;;;;;;;14.31;88.42;101472.13;10152375;28;20046;-66
2021/08/10 05:37:54;;;;;;;7.85;4.93;;;;;;;14.32;88.75;101473.75;10171129;28;20100;-66
2021/08/10 05:42:51;;;;;;;12.02;5.32;;;;;;;14.35;88.99;101464.84;10178076;28;20050;-68
2021/08/10 05:47:48;;;;;;;11.10;5.13;;;;;;;14.39;88.83;101468.56;10176404;28;20542;-67
2021/08/10 05:52:45;;;;;;;9.50;5.20;;;;;;;14.42;89.07;101465.16;10142200;28;20047;-67
2021/08/10 05:57:41;;;;;;;6.82;4.60;;;;;;;14.48;88.72;101460.28;10175807;28;20077;-67
2021/08/10 06:02:38;;;;;;;10.60;5.13;;;;;;;14.50;88.99;101447.84;10151273;28;20056;-66
2021/08/10 06:07:34;;;;;;;11.93;5.07;;;;;;;14.51;88.79;101443.13;10169108;28;20042;-65
2021/08/10 06:12:31;;;;;;;8.65;4.25;;;;;;;14.53;88.80;101433.41;10145734;28;20408;-66
2021/08/10 06:17:27;;;;;;;7.50;4.18;;;;;;;14.58;88.92;101445.41;10163087;28;20046;-67
2021/08/10 06:22:24;;;;;;;15.38;5.25;;;;;;;14.61;89.46;101437.31;10186247;28;20051;-66
2021/08/10 06:27:22;;;;;;;8.65;4.28;;;;;;;14.67;89.65;101430.50;10180528;28;20069;-67
2021/08/10 06:32:18;;;;;;;10.70;4.97;;;;;;;14.68;89.13;101426.59;10188295;28;20042;-66
2021/08/10 06:37:15;;;;;;;9.48;4.50;;;;;;;14.71;88.95;101425.97;10160541;28;20061;-66
2021/08/10 06:42:11;;;;;;;8.77;4.63;;;;;;;14.71;88.86;101422.38;10190033;28;20097;-66
2021/08/10 06:47:08;;;;;;;9.73;4.28;;;;;;;14.76;89.31;101437.91;10186326;28;20034;-66
2021/08/10 06:52:06;;;;;;;9.80;4.88;;;;;;;14.78;89.41;101435.63;10162618;28;20046;-66
2021/08/10 06:57:06;;;;;;;8.77;4.68;;;;;;;14.79;88.63;101449.09;10192679;28;20470;-66
2021/08/10 07:02:04;;;;;;;15.20;5.30;;;;;;;14.83;88.93;101452.78;10149512;28;20105;-66
2021/08/10 07:07:02;;;;;;;7.57;4.47;;;;;;;14.90;88.75;101450.34;10167307;28;20082;-67
2021/08/10 07:11:58;;;;;;;8.95;4.82;;;;;;;15.01;89.62;101445.25;10148640;28;20047;-67
2021/08/10 07:16:55;;;;;;;10.90;5.18;;;;;;;15.12;89.57;101457.53;10164874;28;20073;-67
2021/08/10 07:21:51;;;;;;;11.13;5.25;;;;;;;15.17;89.54;101459.28;10136874;28;20070;-67
2021/08/10 07:26:48;;;;;;;14.30;5.38;;;;;;;15.15;88.61;101456.06;10173647;28;20038;-67
2021/08/10 07:31:44;;;;;;;14.23;5.40;;;;;;;15.22;88.61;101461.84;10189641;28;20115;-67
2021/08/10 07:36:41;;;;;;;11.85;4.90;;;;;;;15.31;88.37;101464.56;10160192;28;20420;-67
2021/08/10 07:41:37;;;;;;;14.13;5.03;;;;;;;15.32;88.35;101461.50;10184729;28;20517;-67
2021/08/10 07:46:34;;;;;;;10.52;5.47;;;;;;;15.43;88.20;101461.13;10178884;28;20074;-67
2021/08/10 07:51:30;;;;;;;10.07;5.43;;;;;;;15.52;88.45;101467.38;10119377;28;20080;-67
2021/08/10 07:56:27;;;;;;;11.73;5.60;;;;;;;15.58;87.63;101463.31;10126606;28;20105;-67
2021/08/10 08:01:23;;;;;;;11.13;5.30;;;;;;;15.65;88.13;101466.34;10174709;28;20080;-67
2021/08/10 08:06:20;;;;;;;10.60;4.97;;;;;;;15.75;88.33;101462.41;10167426;28;20389;-67
2021/08/10 08:11:16;;;;;;;10.20;5.03;;;;;;;15.83;87.80;101452.44;10184106;28;20057;-67
2021/08/10 08:16:13;;;;;;;13.93;6.13;;;;;;;15.90;87.07;101447.22;10170130;28;20108;-67
2021/08/10 08:21:10;;;;;;;11.55;5.75;;;;;;;15.94;86.70;101448.16;10161910;28;20505;-67
2021/08/10 08:26:06;;;;;;;10.77;5.32;;;;;;;15.90;86.73;101448.03;10161968;28;20527;-67
2021/08/10 08:31:03;;;;;;;8.48;4.63;;;;;;;15.90;86.00;101444.47;10178426;28;20096;-67
2021/08/10 08:35:59;;;;;;;10.25;4.60;;;;;;;15.98;85.48;101449.09;10192234;28;20068;-67
2021/08/10 08:40:56;;;;;;;12.00;5.30;;;;;;;16.03;85.73;101457.16;10161320;28;20088;-67
2021/08/10 08:45:53;;;;;;;11.65;4.68;;;;;;;16.13;84.93;101451.25;10159174;28;20422;-67
2021/08/10 08:50:50;;;;;;;12.52;5.32;;;;;;;16.14;83.79;101447.34;10150345;28;20559;-67
2021/08/10 08:55:47;;;;;;;10.48;5.20;;;;;;;16.36;84.37;101453.63;10160210;28;20153;-68
2021/08/10 09:00:44;;;;;;;10.38;5.05;;;;;;;16.68;85.46;101442.94;10170983;28;20076;-67
2021/08/10 09:05:44;;;;;;;9.88;4.82;;;;;;;16.83;83.93;101445.06;10148620;28;20053;-67
2021/08/10 09:10:52;;;;;;;10.82;4.55;;;;;;;17.03;83.75;101435.88;10145728;28;20101;-67
2021/08/10 09:15:49;;;;;;;9.82;4.82;;;;;;;16.90;81.39;101431.50;10147806;28;20085;-67
2021/08/10 09:21:22;;;;;;;8.90;4.43;;;;;;;16.95;81.79;101431.25;10164492;28;20045;-67
2021/08/10 09:26:30;;;;;;;10.50;4.47;;;;;;;16.98;80.05;101430.56;10118539;28;20117;-68
2021/08/10 09:31:38;;;;;;;10.98;4.70;;;;;;;17.29;80.63;101412.63;10174805;28;20149;-68
2021/08/10 09:36:36;;;;;;;9.52;4.10;;;;;;;17.52;78.67;101403.81;10165730;28;20052;-67
2021/08/10 09:41:33;;;;;;;16.25;3.47;;;;;;;17.60;78.00;101391.84;10162279;28;20073;-68
2021/08/10 09:46:29;;;;;;;7.97;4.25;;;;;;;17.52;78.71;101398.31;10180894;28;20054;-67
2021/08/10 09:51:31;;;;;;;7.22;3.75;;;;;;;17.59;79.84;101392.97;10149624;28;20068;-66
2021/08/10 09:56:39;;;;;;;8.82;3.80;;;;;;;17.95;77.61;101394.06;10160494;28;20047;-67
2021/08/10 10:01:37;;;;;;;7.55;3.05;;;;;;;18.08;75.14;101387.34;10143108;28;20042;-66
2021/08/10 10:06:35;;;;;;;8.35;3.55;;;;;;;18.16;70.48;101394.66;10177542;28;20050;-66
2021/08/10 10:11:34;;;;;;;10.18;3.00;;;;;;;18.74;68.39;101390.66;10183048;28;20050;-67
2021/08/10 10:16:32;;;;;;;7.78;3.88;;;;;;;18.57;67.05;101398.16;10161603;28;20070;-67
2021/08/10 10:21:30;;;;;;;9.65;3.45;;;;;;;18.24;67.50;101390.94;10143225;28;20062;-66
2021/08/10 10:26:29;;;;;;;8.60;3.85;;;;;;;18.41;67.48;101389.81;10169114;28;20050;-67
2021/08/10 10:31:26;;;;;;;10.60;3.35;;;;;;;19.95;64.36;101376.81;10156997;28;20573;-67
2021/08/10 10:36:23;;;;;;;9.35;3.15;;;;;;;19.93;63.78;101373.59;10180958;28;20499;-68
2021/08/10 10:41:19;;;;;;;6.63;2.75;;;;;;;20.65;61.47;101377.72;10166588;28;20584;-65
2021/08/10 10:46:31;;;;;;;8.73;3.78;;;;;;;20.19;59.73;101366.56;10179649;28;20038;-67
2021/08/10 10:51:33;;;;;;;8.50;3.67;;;;;;;20.16;60.73;101356.19;10154996;28;20053;-67
2021/08/10 10:56:30;;;;;;;6.35;3.28;;;;;;;20.07;57.55;101366.72;10174761;28;20041;-68
2021/08/10 11:01:29;;;;;;;6.30;3.22;;;;;;;20.18;57.92;101362.16;10196991;28;20512;-67
2021/08/10 11:06:31;;;;;;;7.38;3.10;;;;;;;21.09;54.86;101366.13;10161389;28;20044;-67
2021/08/10 11:11:52;;;;;;;8.70;3.03;;;;;;;20.66;55.02;101365.44;10197893;28;20050;-67
2021/08/10 11:17:07;;;;;;;8.75;3.30;;;;;;;19.85;57.56;101360.75;10182781;28;20500;-66
2021/08/10 11:22:16;;;;;;;7.40;3.33;;;;;;;19.36;59.46;101375.13;10160195;28;20535;-67
2021/08/10 11:27:27;;;;;;;8.88;3.22;;;;;;;19.05;61.80;101385.13;10172497;28;20713;-67
2021/08/10 11:32:38;;;;;;;5.60;3.33;;;;;;;18.63;63.92;101385.63;10146349;28;20042;-66
2021/08/10 11:37:35;;;;;;;6.93;3.53;;;;;;;18.36;65.23;101383.75;10166324;28;20038;-66
2021/08/10 11:42:33;;;;;;;9.23;4.05;;;;;;;18.20;67.34;101383.72;10134518;28;20557;-67
2021/08/10 11:47:30;;;;;;;10.25;3.53;;;;;;;17.82;68.71;101391.38;10163923;28;20042;-68
2021/08/10 11:52:40;;;;;;;6.93;3.00;;;;;;;17.69;71.60;101388.94;10130460;28;20677;-67
2021/08/10 11:57:52;;;;;;;43.33;6.50;;;;;;;17.46;74.13;101381.97;10157460;28;20051;-67
2021/08/10 12:02:49;;;;;;;10.02;4.40;;;;;;;17.63;75.82;101388.38;10164086;28;20077;-67
2021/08/10 12:07:48;;;;;;;7.05;4.20;;;;;;;17.60;73.84;101394.59;10149179;28;20096;-67
2021/08/10 12:12:46;;;;;;;7.97;3.83;;;;;;;17.63;75.25;101388.38;10161927;28;20397;-67
2021/08/10 12:17:53;;;;;;;9.73;4.20;;;;;;;17.60;75.16;101386.31;10160742;28;20499;-67
2021/08/10 12:23:08;;;;;;;7.53;3.35;;;;;;;17.33;75.23;101385.88;10193795;28;20066;-67
2021/08/10 12:28:08;;;;;;;8.02;3.60;;;;;;;17.16;74.83;101397.19;10128817;28;20046;-68
2021/08/10 12:33:13;;;;;;;5.47;2.55;;;;;;;16.79;73.07;101395.22;10189532;28;20073;-67
2021/08/10 12:38:09;;;;;;;6.47;2.67;;;;;;;16.67;76.62;101386.09;10161680;28;20081;-67
2021/08/10 12:43:06;;;;;;;6.65;2.30;;;;;;;16.77;77.94;101374.59;10168967;28;20103;-67
2021/08/10 12:48:23;;;;;;;7.25;3.28;;;;;;;16.95;78.27;101375.22;10158992;28;20062;-67
2021/08/10 12:53:45;;;;;;;5.70;2.80;;;;;;;17.61;79.45;101376.84;10151923;28;20177;-67
2021/08/10 12:58:52;;;;;;;4.82;2.10;;;;;;;18.22;75.59;101371.13;10187800;28;20034;-67
2021/08/10 13:03:50;;;;;;;5.65;2.33;;;;;;;18.43;74.28;101376.44;10121260;28;20078;-67
2021/08/10 13:08:54;;;;;;;5.43;2.10;;;;;;;18.71;72.92;101361.69;10128300;28;20045;-68
2021/08/10 13:13:52;;;;;;;5.38;2.50;;;;;;;18.82;70.95;101361.97;10165026;28;20065;-67
2021/08/10 13:19:18;;;;;;;6.60;2.58;;;;;;;18.85;69.53;101359.31;10190283;28;20097;-66
2021/08/10 13:24:18;;;;;;;5.03;2.65;;;;;;;19.20;70.83;101358.53;10140143;28;20072;-67
2021/08/10 13:29:16;;;;;;;5.32;2.90;;;;;;;19.37;69.24;101353.75;10184824;28;20038;-67
2021/08/10 13:34:13;;;;;;;6.97;2.72;;;;;;;19.45;67.25;101348.00;10128705;28;20115;-66
2021/08/10 13:39:11;;;;;;;6.22;3.50;;;;;;;19.54;67.85;101345.81;10152419;28;20180;-67
2021/08/10 13:44:09;;;;;;;5.95;2.70;;;;;;;19.73;68.76;101341.47;10190128;28;20046;-66
2021/08/10 13:49:07;;;;;;;8.65;2.80;;;;;;;19.71;67.26;101349.38;10142990;28;20038;-66
2021/08/10 13:54:04;;;;;;;5.47;2.45;;;;;;;19.82;65.07;101333.75;10189797;28;20050;-66
2021/08/10 13:59:01;;;;;;;5.03;2.28;;;;;;;20.14;64.51;101339.09;10125140;28;20058;-67
2021/08/10 14:03:57;;;;;;;5.65;2.40;;;;;;;20.02;60.51;101350.38;10170465;28;20104;-67
2021/08/10 14:08:54;;;;;;;4.85;1.92;;;;;;;19.24;59.89;101392.69;10122468;28;20202;-66
2021/08/10 14:13:51;;;;;;;3.15;1.20;;;;;;;18.23;62.99;101383.78;10145459;28;20065;-65
2021/08/10 14:18:48;;;;;;;4.28;1.30;;;;;;;17.73;68.63;101387.91;10164268;28;20093;-66
2021/08/10 14:23:45;;;;;;;4.80;1.70;;;;;;;17.52;71.14;101376.19;10137508;28;20051;-65
2021/08/10 14:28:41;;;;;;;4.30;1.90;;;;;;;17.07;74.04;101377.97;10157191;28;20126;-66
2021/08/10 14:33:39;;;;;;;7.70;2.72;;;;;;;16.97;76.32;101373.72;10186175;28;20070;-65
2021/08/10 14:38:35;;;;;;;7.93;2.95;;;;;;;17.41;79.09;101376.69;10166905;28;20509;-65
2021/08/10 14:43:32;;;;;;;6.97;2.22;;;;;;;17.82;77.60;101374.75;10182260;28;20082;-65
2021/08/10 14:48:28;;;;;;;4.65;2.20;;;;;;;17.90;75.78;101386.81;10148470;28;20081;-65
2021/08/10 14:53:27;;;;;;;5.80;2.13;;;;;;;17.91;73.69;101382.09;10178199;28;20042;-67
2021/08/10 14:58:23;;;;;;;4.13;1.58;;;;;;;18.28;74.22;101380.75;10131461;28;20117;-66
2021/08/10 15:03:19;;;;;;;5.60;2.10;;;;;;;18.33;73.37;101387.19;10172595;28;20069;-66
2021/08/10 15:08:16;;;;;;;4.22;1.92;;;;;;;18.26;74.01;101383.09;10173295;28;20069;-67
2021/08/10 15:13:14;;;;;;;4.90;1.98;;;;;;;18.23;74.43;101383.78;10156282;28;20050;-68
2021/08/10 15:18:11;;;;;;;6.50;2.67;;;;;;;18.13;76.04;101387.06;10175091;28;20088;-67
2021/08/10 15:23:07;;;;;;;4.43;2.30;;;;;;;18.06;75.55;101390.44;10124042;28;20125;-67
2021/08/10 15:28:06;;;;;;;4.70;2.42;;;;;;;18.04;77.00;101387.22;10170503;28;20062;-67
2021/08/10 15:33:03;;;;;;;6.70;2.55;;;;;;;17.96;77.84;101395.66;10163045;28;20463;-67
2021/08/10 15:37:59;;;;;;;5.65;3.20;;;;;;;17.93;78.72;101407.44;10137259;28;20102;-66
2021/08/10 15:42:56;;;;;;;7.65;3.72;;;;;;;17.74;78.47;101424.66;10158369;28;20050;-67
2021/08/10 15:47:52;;;;;;;11.40;3.80;;;;;;;17.42;81.38;101433.56;10171597;28;20081;-67
2021/08/10 15:52:49;;;;;;;16.75;5.32;;;;;;;17.08;81.16;101445.06;10181915;28;20421;-66
2021/08/10 15:57:46;;;;;;;39.95;8.38;;;;;;;16.67;83.32;101458.69;10151861;28;20052;-66
2021/08/10 16:02:42;;;;;;;10.35;3.63;;;;;;;16.28;82.49;101446.25;10183631;28;20046;-66
2021/08/10 16:07:39;;;;;;;9.10;3.70;;;;;;;16.13;84.12;101437.47;10178861;28;20073;-67
2021/08/10 16:12:36;;;;;;;6.50;3.40;;;;;;;16.06;85.06;101442.72;10169290;28;20500;-66
2021/08/10 16:17:33;;;;;;;6.15;3.00;;;;;;;16.09;85.71;101435.72;10172393;28;20088;-67
2021/08/10 16:22:29;;;;;;;9.95;3.10;;;;;;;16.11;85.06;101442.50;10188056;28;20141;-67
2021/08/10 16:27:26;;;;;;;6.05;3.35;;;;;;;16.17;85.97;101435.63;10170810;28;20570;-67
2021/08/10 16:32:22;;;;;;;5.45;3.20;;;;;;;16.22;85.95;101433.81;10158710;28;20462;-66
2021/08/10 16:37:39;;;;;;;6.70;4.35;;;;;;;16.24;85.43;101439.78;10167148;28;20069;-66
2021/08/10 16:42:35;;;;;;;7.85;4.72;;;;;;;16.23;86.21;101432.69;10163852;28;20112;-67
2021/08/10 16:47:32;;;;;;;7.82;3.88;;;;;;;16.29;86.54;101436.81;10166950;28;20542;-67
2021/08/10 16:52:29;;;;;;;9.77;3.78;;;;;;;16.30;86.11;101432.94;10129656;28;20431;-67
2021/08/10 16:57:25;;;;;;;6.18;3.83;;;;;;;16.24;85.49;101426.78;10162494;28;20077;-66
2021/08/10 17:02:22;;;;;;;8.10;3.58;;;;;;;16.28;85.21;101424.19;10193227;28;20507;-66
2021/08/10 17:07:18;;;;;;;9.10;5.05;;;;;;;16.26;85.23;101410.72;10165825;28;20625;-66
2021/08/10 17:12:15;;;;;;;8.68;4.07;;;;;;;16.28;86.22;101404.88;10176883;28;20050;-67
2021/08/10 17:17:11;;;;;;;6.75;3.65;;;;;;;16.23;85.42;101405.09;10130275;28;20462;-67
2021/08/10 17:22:08;;;;;;;8.32;3.67;;;;;;;16.24;85.31;101395.66;10178274;28;20047;-67
2021/08/10 17:27:05;;;;;;;7.05;3.88;;;;;;;16.29;86.42;101406.47;10160479;28;20042;-67
2021/08/10 17:32:01;;;;;;;8.27;5.10;;;;;;;16.32;86.92;101414.88;10154485;28;20046;-66
2021/08/10 17:36:58;;;;;;;9.25;4.57;;;;;;;16.32;87.83;101419.59;10157401;28;20078;-67
2021/08/10 17:41:54;;;;;;;10.98;5.57;;;;;;;16.34;87.64;101414.56;10125762;28;20051;-66
2021/08/10 17:46:51;;;;;;;9.90;5.13;;;;;;;16.34;87.55;101415.34;10153611;28;20492;-66
2021/08/10 17:51:48;;;;;;;9.05;5.03;;;;;;;16.35;87.21;101410.63;10157143;28;20051;-66
2021/08/10 17:56:47;;;;;;;11.07;6.10;;;;;;;16.37;87.97;101411.09;10157118;28;20125;-67
2021/08/10 18:01:43;;;;;;;9.02;4.93;;;;;;;16.33;87.67;101410.16;10178550;28;20112;-66
2021/08/10 18:06:40;;;;;;;8.57;4.47;;;;;;;16.31;86.47;101412.44;10165034;28;20566;-65
2021/08/10 18:11:36;;;;;;;10.90;6.15;;;;;;;16.29;87.17;101412.00;10174229;28;20052;-66
2021/08/10 18:16:33;;;;;;;8.48;4.88;;;;;;;16.25;87.93;101416.59;10146208;28;20046;-67
2021/08/10 18:21:29;;;;;;;10.02;5.82;;;;;;;16.28;87.32;101410.38;10168761;28;20104;-67
2021/08/10 18:26:26;;;;;;;8.60;6.45;;;;;;;16.24;88.07;101423.25;10143976;28;20113;-66
2021/08/10 18:31:23;;;;;;;10.65;7.45;;;;;;;16.20;87.87;101426.69;10164175;28;20046;-66
2021/08/10 18:36:19;;;;;;;6.57;4.30;;;;;;;16.14;86.70;101430.78;10188370;28;20049;-65
2021/08/10 18:41:29;;;;;;;7.05;4.68;;;;;;;16.14;85.76;101435.50;10170964;28;20101;-66
2021/08/10 18:46:25;;;;;;;7.40;4.35;;;;;;;16.11;86.35;101437.00;10157340;28;20046;-68
2021/08/10 18:51:23;;;;;;;5.38;3.72;;;;;;;16.02;85.71;101444.53;10183939;28;20121;-65
2021/08/10 18:56:19;;;;;;;8.05;4.68;;;;;;;15.98;85.66;101446.34;10157921;28;20078;-65
2021/08/10 19:01:16;;;;;;;8.43;5.35;;;;;;;15.93;85.45;101446.56;10175972;28;20100;-67
2021/08/10 19:06:12;;;;;;;9.02;5.28;;;;;;;15.92;86.95;101450.44;10153256;28;20512;-66
2021/08/10 19:11:09;;;;;;;7.03;4.45;;;;;;;15.91;86.78;101460.66;10147302;28;20825;-65
2021/08/10 19:16:05;;;;;;;8.52;5.55;;;;;;;15.88;86.33;101460.56;10153832;28;20070;-67
2021/08/10 19:21:02;;;;;;;8.48;4.22;;;;;;;15.87;85.95;101464.44;10170890;28;20552;-66
2021/08/10 19:25:59;;;;;;;6.65;4.80;;;;;;;15.81;86.39;101465.78;10189991;28;20509;-66
2021/08/10 19:30:55;;;;;;;7.70;5.07;;;;;;;15.77;86.84;101465.63;10148795;28;20507;-66
2021/08/10 19:35:52;;;;;;;7.82;5.05;;;;;;;15.80;87.22;101464.16;10175786;28;20043;-64
2021/08/10 19:40:49;;;;;;;7.90;4.90;;;;;;;15.82;87.59;101456.38;10141131;28;20053;-67
2021/08/10 19:45:45;;;;;;;8.85;5.88;;;;;;;15.83;87.74;101457.97;10178397;28;20499;-67
2021/08/10 19:50:42;;;;;;;9.15;6.13;;;;;;;15.81;88.04;101460.28;10190424;28;20062;-66
2021/08/10 19:55:38;;;;;;;8.57;5.53;;;;;;;15.80;88.58;101466.91;10151937;28;20050;-66
2021/08/10 20:00:35;;;;;;;12.23;6.38;;;;;;;15.81;88.65;101487.84;10165368;28;20052;-66
2021/08/10 20:05:33;;;;;;;9.45;6.60;;;;;;;15.77;88.72;101482.97;10168241;28;20444;-67
2021/08/10 20:10:30;;;;;;;8.60;6.32;;;;;;;15.77;88.99;101477.47;10156076;28;20095;-66
2021/08/10 20:15:26;;;;;;;11.30;7.22;;;;;;;15.83;89.29;101485.53;10154544;28;20046;-66
2021/08/10 20:20:22;;;;;;;9.55;6.25;;;;;;;15.85;89.30;101500.63;10154407;28;20078;-66
2021/08/10 20:25:19;;;;;;;10.20;6.80;;;;;;;15.82;89.56;101500.47;10180108;28;20139;-66
2021/08/10 20:30:16;;;;;;;9.18;6.43;;;;;;;15.86;89.19;101499.47;10160937;28;20086;-67
2021/08/10 20:35:13;;;;;;;9.18;6.80;;;;;;;15.85;89.58;101506.16;10179558;28;20046;-66
2021/08/10 20:40:09;;;;;;;11.88;7.07;;;;;;;15.83;89.77;101507.59;10124595;28;20090;-66
2021/08/10 20:45:06;;;;;;;12.20;7.43;;;;;;;15.82;90.17;101506.00;10175009;28;20447;-66
2021/08/10 20:50:03;;;;;;;8.95;6.43;;;;;;;15.78;90.34;101512.19;10122814;28;20117;-65
2021/08/10 20:55:00;;;;;;;10.02;7.18;;;;;;;15.78;90.06;101517.69;10171495;28;20042;-66
2021/08/10 20:59:56;;;;;;;9.57;6.70;;;;;;;15.73;90.41;101523.41;10187295;28;20073;-65
2021/08/10 21:04:53;;;;;;;13.57;7.55;;;;;;;15.73;90.33;101520.66;10162515;28;20073;-66
2021/08/10 21:09:49;;;;;;;13.27;8.63;;;;;;;15.75;90.05;101523.88;10179580;28;20111;-66
2021/08/10 21:14:46;;;;;;;11.70;7.55;;;;;;;15.70;90.24;101526.81;10166214;28;20050;-67
2021/08/10 21:19:43;;;;;;;13.00;7.30;;;;;;;15.68;90.15;101534.59;10165991;28;20574;-65
2021/08/10 21:24:39;;;;;;;12.48;8.52;;;;;;;15.60;90.91;101531.88;10167431;28;20054;-66
2021/08/10 21:29:36;;;;;;;12.02;8.30;;;;;;;15.56;90.97;101526.22;10164830;28;20077;-66
2021/08/10 21:34:32;;;;;;;11.70;8.50;;;;;;;15.53;91.60;101535.16;10155665;28;20074;-65
2021/08/10 21:39:29;;;;;;;11.00;8.75;;;;;;;15.53;91.16;101532.41;10144603;28;20042;-67
2021/08/10 21:44:25;;;;;;;11.73;8.65;;;;;;;15.53;90.98;101540.69;10151834;28;20054;-66
2021/08/10 21:49:22;;;;;;;12.60;8.30;;;;;;;15.51;91.58;101540.19;10166620;28;20065;-65
2021/08/10 21:54:18;;;;;;;12.52;9.05;;;;;;;15.51;91.18;101548.47;10182565;28;20077;-65
2021/08/10 21:59:15;;;;;;;14.73;9.68;;;;;;;15.50;91.34;101553.19;10174099;28;20069;-67
2021/08/10 22:04:11;;;;;;;13.43;9.52;;;;;;;15.47;91.11;101555.75;10161029;28;20049;-66
2021/08/10 22:09:07;;;;;;;15.05;9.95;;;;;;;15.44;91.20;101568.25;10176268;28;20046;-67
2021/08/10 22:14:04;;;;;;;13.15;9.63;;;;;;;15.42;91.51;101569.72;10146605;28;20145;-66
2021/08/10 22:19:00;;;;;;;13.98;10.40;;;;;;;15.36;91.51;101561.66;10176981;28;20581;-67
2021/08/10 22:23:57;;;;;;;13.35;9.75;;;;;;;15.35;91.99;101565.53;10144782;28;20463;-65
2021/08/10 22:28:54;;;;;;;12.38;9.27;;;;;;;15.27;92.16;101560.88;10154538;28;20075;-67
2021/08/10 22:33:50;;;;;;;15.27;12.23;;;;;;;15.30;92.15;101557.44;10140615;28;20081;-67
2021/08/10 22:38:47;;;;;;;16.75;11.40;;;;;;;15.28;91.88;101565.22;10166491;28;20069;-67
2021/08/10 22:43:44;;;;;;;12.77;9.70;;;;;;;15.25;91.51;101570.59;10196990;28;20165;-65
2021/08/10 22:48:40;;;;;;;13.60;10.40;;;;;;;15.20;91.72;101584.53;10147675;28;20068;-67